sensor_id;sensor_type;location;lat;lon;timestamp;temperature;humidity
23395;DHT22;11870;53.084;18.206;2023-08-01T00:01:33;18.90;99.90
23395;DHT22;11870;53.084;18.206;2023-08-01T00:03:59;19.00;99.90
23395;DHT22;11870;53.084;18.206;2023-08-01T00:06:24;18.90;99.90
23395;DHT22;11870;53.084;18.206;2023-08-01T00:08:51;19.00;99.90
23395;DHT22;11870;53.084;18.206;2023-08-01T00:11:17;19.00;99.90
23395;DHT22;11870;53.084;18.206;2023-08-01T00:13:43;19.00;99.90
23395;DHT22;11870;53.084;18.206;2023-08-01T00:16:09;19.10;99.90
23395;DHT22;11870;53.084;18.206;2023-08-01T00:18:35;19.10;99.90
23395;DHT22;11870;53.084;18.206;2023-08-01T00:21:02;19.00;99.90
23395;DHT22;11870;53.084;18.206;2023-08-01T00:23:28;19.10;99.90
23395;DHT22;11870;53.084;18.206;2023-08-01T00:25:54;19.10;99.90
23395;DHT22;11870;53.084;18.206;2023-08-01T00:28:22;19.10;99.90
23395;DHT22;11870;53.084;18.206;2023-08-01T00:30:48;19.10;99.90
23395;DHT22;11870;53.084;18.206;2023-08-01T00:33:14;19.00;99.90
23395;DHT22;11870;53.084;18.206;2023-08-01T00:35:40;19.50;99.90
23395;DHT22;11870;53.084;18.206;2023-08-01T00:38:06;19.00;99.90
23395;DHT22;11870;53.084;18.206;2023-08-01T00:40:33;18.90;99.90
23395;DHT22;11870;53.084;18.206;2023-08-01T00:43:00;18.90;99.90
23395;DHT22;11870;53.084;18.206;2023-08-01T00:45:30;18.80;99.90
23395;DHT22;11870;53.084;18.206;2023-08-01T00:47:56;18.80;99.90
23395;DHT22;11870;53.084;18.206;2023-08-01T00:50:22;19.30;99.90
23395;DHT22;11870;53.084;18.206;2023-08-01T00:52:50;18.80;99.90
23395;DHT22;11870;53.084;18.206;2023-08-01T00:55:18;18.70;99.90
23395;DHT22;11870;53.084;18.206;2023-08-01T00:57:44;18.70;99.90
23395;DHT22;11870;53.084;18.206;2023-08-01T01:00:10;18.60;99.90
23395;DHT22;11870;53.084;18.206;2023-08-01T01:02:37;18.60;99.90
23395;DHT22;11870;53.084;18.206;2023-08-01T01:05:03;18.50;99.90
23395;DHT22;11870;53.084;18.206;2023-08-01T01:07:31;18.50;99.90
23395;DHT22;11870;53.084;18.206;2023-08-01T01:10:00;18.50;99.90
23395;DHT22;11870;53.084;18.206;2023-08-01T01:12:26;18.50;99.90
23395;DHT22;11870;53.084;18.206;2023-08-01T01:14:52;18.50;99.90
23395;DHT22;11870;53.084;18.206;2023-08-01T01:17:18;20.30;99.90
23395;DHT22;11870;53.084;18.206;2023-08-01T01:19:44;18.40;99.90
23395;DHT22;11870;53.084;18.206;2023-08-01T01:22:10;18.30;99.90
23395;DHT22;11870;53.084;18.206;2023-08-01T01:24:37;18.20;99.90
23395;DHT22;11870;53.084;18.206;2023-08-01T01:27:04;18.20;99.90
23395;DHT22;11870;53.084;18.206;2023-08-01T01:29:32;18.20;99.90
23395;DHT22;11870;53.084;18.206;2023-08-01T01:32:00;18.20;99.90
23395;DHT22;11870;53.084;18.206;2023-08-01T01:34:29;18.30;99.90
23395;DHT22;11870;53.084;18.206;2023-08-01T01:36:55;18.30;99.90
23395;DHT22;11870;53.084;18.206;2023-08-01T01:39:21;18.30;99.90
23395;DHT22;11870;53.084;18.206;2023-08-01T01:41:47;18.40;99.90
23395;DHT22;11870;53.084;18.206;2023-08-01T01:44:13;18.40;99.90
23395;DHT22;11870;53.084;18.206;2023-08-01T01:46:39;18.40;99.90
23395;DHT22;11870;53.084;18.206;2023-08-01T01:49:05;18.40;99.90
23395;DHT22;11870;53.084;18.206;2023-08-01T01:51:31;18.40;99.90
23395;DHT22;11870;53.084;18.206;2023-08-01T01:53:57;18.40;99.90
23395;DHT22;11870;53.084;18.206;2023-08-01T01:56:23;18.40;99.90
23395;DHT22;11870;53.084;18.206;2023-08-01T01:58:49;18.40;99.90
23395;DHT22;11870;53.084;18.206;2023-08-01T02:01:15;18.40;99.90
23395;DHT22;11870;53.084;18.206;2023-08-01T02:03:41;19.20;99.90
23395;DHT22;11870;53.084;18.206;2023-08-01T02:06:08;18.50;99.90
23395;DHT22;11870;53.084;18.206;2023-08-01T02:08:34;18.50;99.90
23395;DHT22;11870;53.084;18.206;2023-08-01T02:11:00;18.60;99.90
23395;DHT22;11870;53.084;18.206;2023-08-01T02:13:27;18.60;99.90
23395;DHT22;11870;53.084;18.206;2023-08-01T02:15:54;18.60;99.90
23395;DHT22;11870;53.084;18.206;2023-08-01T02:18:20;18.60;99.90
23395;DHT22;11870;53.084;18.206;2023-08-01T02:20:46;18.60;99.90
23395;DHT22;11870;53.084;18.206;2023-08-01T02:23:12;18.60;99.90
23395;DHT22;11870;53.084;18.206;2023-08-01T02:25:39;18.60;99.90
23395;DHT22;11870;53.084;18.206;2023-08-01T02:28:06;18.60;99.90
23395;DHT22;11870;53.084;18.206;2023-08-01T02:30:33;18.40;99.90
23395;DHT22;11870;53.084;18.206;2023-08-01T02:32:59;18.50;99.90
23395;DHT22;11870;53.084;18.206;2023-08-01T02:35:24;18.50;99.90
23395;DHT22;11870;53.084;18.206;2023-08-01T02:37:50;18.70;99.90
23395;DHT22;11870;53.084;18.206;2023-08-01T02:40:16;19.30;99.90
23395;DHT22;11870;53.084;18.206;2023-08-01T02:42:42;18.40;99.90
23395;DHT22;11870;53.084;18.206;2023-08-01T02:45:08;18.50;99.90
23395;DHT22;11870;53.084;18.206;2023-08-01T02:47:34;18.50;99.90
23395;DHT22;11870;53.084;18.206;2023-08-01T02:50:00;18.50;99.90
23395;DHT22;11870;53.084;18.206;2023-08-01T02:52:26;18.40;99.90
23395;DHT22;11870;53.084;18.206;2023-08-01T02:54:53;18.30;99.90
23395;DHT22;11870;53.084;18.206;2023-08-01T02:57:19;18.40;99.90
23395;DHT22;11870;53.084;18.206;2023-08-01T02:59:45;18.40;99.90
23395;DHT22;11870;53.084;18.206;2023-08-01T03:02:11;18.40;99.90
23395;DHT22;11870;53.084;18.206;2023-08-01T03:04:37;18.30;99.90
23395;DHT22;11870;53.084;18.206;2023-08-01T03:07:03;18.30;99.90
23395;DHT22;11870;53.084;18.206;2023-08-01T03:09:28;18.20;99.90
23395;DHT22;11870;53.084;18.206;2023-08-01T03:11:55;18.20;99.90
23395;DHT22;11870;53.084;18.206;2023-08-01T03:14:20;18.20;99.90
23395;DHT22;11870;53.084;18.206;2023-08-01T03:16:46;18.20;99.90
23395;DHT22;11870;53.084;18.206;2023-08-01T03:19:12;18.20;99.90
23395;DHT22;11870;53.084;18.206;2023-08-01T03:21:39;18.20;99.90
23395;DHT22;11870;53.084;18.206;2023-08-01T03:24:05;18.20;99.90
23395;DHT22;11870;53.084;18.206;2023-08-01T03:26:35;18.20;99.90
23395;DHT22;11870;53.084;18.206;2023-08-01T03:29:01;18.20;99.90
23395;DHT22;11870;53.084;18.206;2023-08-01T03:31:27;18.20;99.90
23395;DHT22;11870;53.084;18.206;2023-08-01T03:33:53;18.20;99.90
23395;DHT22;11870;53.084;18.206;2023-08-01T03:36:19;18.30;99.90
23395;DHT22;11870;53.084;18.206;2023-08-01T03:38:46;18.20;99.90
23395;DHT22;11870;53.084;18.206;2023-08-01T03:41:12;18.30;99.90
23395;DHT22;11870;53.084;18.206;2023-08-01T03:43:38;18.40;99.90
23395;DHT22;11870;53.084;18.206;2023-08-01T03:46:04;18.40;99.90
23395;DHT22;11870;53.084;18.206;2023-08-01T03:48:30;18.40;99.90
23395;DHT22;11870;53.084;18.206;2023-08-01T03:50:56;18.50;99.90
23395;DHT22;11870;53.084;18.206;2023-08-01T03:53:22;18.50;99.90
23395;DHT22;11870;53.084;18.206;2023-08-01T03:55:48;18.60;99.90
23395;DHT22;11870;53.084;18.206;2023-08-01T03:58:14;18.70;99.90
23395;DHT22;11870;53.084;18.206;2023-08-01T04:00:41;18.70;99.90
23395;DHT22;11870;53.084;18.206;2023-08-01T04:03:06;18.80;99.90
23395;DHT22;11870;53.084;18.206;2023-08-01T04:05:33;18.80;99.90
23395;DHT22;11870;53.084;18.206;2023-08-01T04:07:59;18.70;99.90
23395;DHT22;11870;53.084;18.206;2023-08-01T04:10:25;18.60;99.90
23395;DHT22;11870;53.084;18.206;2023-08-01T04:12:51;18.50;99.90
23395;DHT22;11870;53.084;18.206;2023-08-01T04:15:17;18.50;99.90
23395;DHT22;11870;53.084;18.206;2023-08-01T04:17:43;18.50;99.90
23395;DHT22;11870;53.084;18.206;2023-08-01T04:20:09;18.50;99.90
23395;DHT22;11870;53.084;18.206;2023-08-01T04:22:35;18.40;99.90
23395;DHT22;11870;53.084;18.206;2023-08-01T04:25:02;18.40;99.90
23395;DHT22;11870;53.084;18.206;2023-08-01T04:27:28;18.40;99.90
23395;DHT22;11870;53.084;18.206;2023-08-01T04:29:55;18.40;99.90
23395;DHT22;11870;53.084;18.206;2023-08-01T04:32:21;18.30;99.90
23395;DHT22;11870;53.084;18.206;2023-08-01T04:34:47;18.30;99.90
23395;DHT22;11870;53.084;18.206;2023-08-01T04:37:13;18.20;99.90
23395;DHT22;11870;53.084;18.206;2023-08-01T04:39:39;18.20;99.90
23395;DHT22;11870;53.084;18.206;2023-08-01T04:42:05;18.30;99.90
23395;DHT22;11870;53.084;18.206;2023-08-01T04:44:32;18.30;99.90
23395;DHT22;11870;53.084;18.206;2023-08-01T04:46:57;18.30;99.90
23395;DHT22;11870;53.084;18.206;2023-08-01T04:49:23;18.30;99.90
23395;DHT22;11870;53.084;18.206;2023-08-01T04:51:52;18.30;99.90
23395;DHT22;11870;53.084;18.206;2023-08-01T04:54:18;18.30;99.90
23395;DHT22;11870;53.084;18.206;2023-08-01T04:56:44;18.30;99.90
23395;DHT22;11870;53.084;18.206;2023-08-01T04:59:10;18.30;99.90
23395;DHT22;11870;53.084;18.206;2023-08-01T05:01:36;18.30;99.90
23395;DHT22;11870;53.084;18.206;2023-08-01T05:04:02;18.20;99.90
23395;DHT22;11870;53.084;18.206;2023-08-01T05:06:28;18.10;99.90
23395;DHT22;11870;53.084;18.206;2023-08-01T05:08:54;18.20;99.90
23395;DHT22;11870;53.084;18.206;2023-08-01T05:11:20;18.20;99.90
23395;DHT22;11870;53.084;18.206;2023-08-01T05:13:47;18.20;99.90
23395;DHT22;11870;53.084;18.206;2023-08-01T05:16:12;18.10;99.90
23395;DHT22;11870;53.084;18.206;2023-08-01T05:18:38;18.00;99.90
23395;DHT22;11870;53.084;18.206;2023-08-01T05:21:04;18.00;99.90
23395;DHT22;11870;53.084;18.206;2023-08-01T05:23:30;18.00;99.90
23395;DHT22;11870;53.084;18.206;2023-08-01T05:25:56;17.90;99.90
23395;DHT22;11870;53.084;18.206;2023-08-01T05:28:22;17.90;99.90
23395;DHT22;11870;53.084;18.206;2023-08-01T05:30:48;17.90;99.90
23395;DHT22;11870;53.084;18.206;2023-08-01T05:33:14;18.70;99.90
23395;DHT22;11870;53.084;18.206;2023-08-01T05:35:40;18.10;99.90
23395;DHT22;11870;53.084;18.206;2023-08-01T05:38:06;17.80;99.90
23395;DHT22;11870;53.084;18.206;2023-08-01T05:40:32;17.80;99.90
23395;DHT22;11870;53.084;18.206;2023-08-01T05:42:58;17.80;99.90
23395;DHT22;11870;53.084;18.206;2023-08-01T05:45:24;17.80;99.90
23395;DHT22;11870;53.084;18.206;2023-08-01T05:47:49;17.90;99.90
23395;DHT22;11870;53.084;18.206;2023-08-01T05:50:15;18.00;99.90
23395;DHT22;11870;53.084;18.206;2023-08-01T05:52:41;18.10;99.90
23395;DHT22;11870;53.084;18.206;2023-08-01T05:55:07;18.20;99.90
23395;DHT22;11870;53.084;18.206;2023-08-01T05:57:33;18.40;99.90
23395;DHT22;11870;53.084;18.206;2023-08-01T06:00:00;18.50;99.90
23395;DHT22;11870;53.084;18.206;2023-08-01T06:02:26;18.70;99.90
23395;DHT22;11870;53.084;18.206;2023-08-01T06:04:52;18.80;99.90
23395;DHT22;11870;53.084;18.206;2023-08-01T06:07:18;18.80;99.90
23395;DHT22;11870;53.084;18.206;2023-08-01T06:09:49;18.80;99.90
23395;DHT22;11870;53.084;18.206;2023-08-01T06:12:19;18.70;99.90
23395;DHT22;11870;53.084;18.206;2023-08-01T06:14:45;18.60;99.90
23395;DHT22;11870;53.084;18.206;2023-08-01T06:17:12;18.60;99.90
23395;DHT22;11870;53.084;18.206;2023-08-01T06:19:37;18.50;99.90
23395;DHT22;11870;53.084;18.206;2023-08-01T06:22:04;18.60;99.90
23395;DHT22;11870;53.084;18.206;2023-08-01T06:24:29;18.50;99.90
23395;DHT22;11870;53.084;18.206;2023-08-01T06:26:56;18.50;99.90
23395;DHT22;11870;53.084;18.206;2023-08-01T06:29:22;18.50;99.90
23395;DHT22;11870;53.084;18.206;2023-08-01T06:31:48;18.50;99.90
23395;DHT22;11870;53.084;18.206;2023-08-01T06:34:13;18.50;99.90
23395;DHT22;11870;53.084;18.206;2023-08-01T06:36:39;18.40;99.90
23395;DHT22;11870;53.084;18.206;2023-08-01T06:39:05;18.40;99.90
23395;DHT22;11870;53.084;18.206;2023-08-01T06:41:31;18.40;99.90
23395;DHT22;11870;53.084;18.206;2023-08-01T06:43:57;18.20;99.90
23395;DHT22;11870;53.084;18.206;2023-08-01T06:46:23;18.20;99.90
23395;DHT22;11870;53.084;18.206;2023-08-01T06:48:49;18.20;99.90
23395;DHT22;11870;53.084;18.206;2023-08-01T06:51:15;18.30;99.90
23395;DHT22;11870;53.084;18.206;2023-08-01T06:53:41;18.30;99.90
23395;DHT22;11870;53.084;18.206;2023-08-01T06:56:07;18.30;99.90
23395;DHT22;11870;53.084;18.206;2023-08-01T06:58:33;18.40;99.90
23395;DHT22;11870;53.084;18.206;2023-08-01T07:00:59;18.60;99.90
23395;DHT22;11870;53.084;18.206;2023-08-01T07:03:25;18.70;99.90
23395;DHT22;11870;53.084;18.206;2023-08-01T07:05:51;18.90;99.90
23395;DHT22;11870;53.084;18.206;2023-08-01T07:08:16;19.20;99.90
23395;DHT22;11870;53.084;18.206;2023-08-01T07:13:09;19.70;99.90
23395;DHT22;11870;53.084;18.206;2023-08-01T07:15:35;20.00;99.90
23395;DHT22;11870;53.084;18.206;2023-08-01T07:18:01;20.40;99.90
23395;DHT22;11870;53.084;18.206;2023-08-01T07:20:27;20.60;99.90
23395;DHT22;11870;53.084;18.206;2023-08-01T07:22:52;20.80;99.90
23395;DHT22;11870;53.084;18.206;2023-08-01T07:25:18;20.90;99.90
23395;DHT22;11870;53.084;18.206;2023-08-01T07:27:46;20.90;99.90
23395;DHT22;11870;53.084;18.206;2023-08-01T07:30:12;20.80;99.90
23395;DHT22;11870;53.084;18.206;2023-08-01T07:32:38;20.80;99.90
23395;DHT22;11870;53.084;18.206;2023-08-01T07:35:05;20.50;99.90
23395;DHT22;11870;53.084;18.206;2023-08-01T07:37:33;20.50;99.90
23395;DHT22;11870;53.084;18.206;2023-08-01T07:39:59;20.30;99.90
23395;DHT22;11870;53.084;18.206;2023-08-01T07:42:25;20.30;99.90
23395;DHT22;11870;53.084;18.206;2023-08-01T07:44:51;20.50;99.90
23395;DHT22;11870;53.084;18.206;2023-08-01T07:47:17;20.40;99.90
23395;DHT22;11870;53.084;18.206;2023-08-01T07:49:43;20.40;99.90
23395;DHT22;11870;53.084;18.206;2023-08-01T07:52:09;20.50;99.90
23395;DHT22;11870;53.084;18.206;2023-08-01T07:54:35;20.40;99.90
23395;DHT22;11870;53.084;18.206;2023-08-01T07:57:01;20.40;99.90
23395;DHT22;11870;53.084;18.206;2023-08-01T07:59:27;20.30;99.90
23395;DHT22;11870;53.084;18.206;2023-08-01T08:01:53;20.20;99.90
23395;DHT22;11870;53.084;18.206;2023-08-01T08:04:20;20.10;99.90
23395;DHT22;11870;53.084;18.206;2023-08-01T08:06:45;20.20;99.90
23395;DHT22;11870;53.084;18.206;2023-08-01T08:09:12;20.40;99.90
23395;DHT22;11870;53.084;18.206;2023-08-01T08:11:38;20.50;99.90
23395;DHT22;11870;53.084;18.206;2023-08-01T08:14:05;20.70;99.90
23395;DHT22;11870;53.084;18.206;2023-08-01T08:16:31;20.90;99.90
23395;DHT22;11870;53.084;18.206;2023-08-01T08:18:57;21.30;99.90
23395;DHT22;11870;53.084;18.206;2023-08-01T08:21:23;21.40;99.90
23395;DHT22;11870;53.084;18.206;2023-08-01T08:23:50;21.40;99.90
23395;DHT22;11870;53.084;18.206;2023-08-01T08:26:16;21.30;99.90
23395;DHT22;11870;53.084;18.206;2023-08-01T08:28:42;21.20;99.90
23395;DHT22;11870;53.084;18.206;2023-08-01T08:31:08;21.20;99.90
23395;DHT22;11870;53.084;18.206;2023-08-01T08:33:34;21.40;99.90
23395;DHT22;11870;53.084;18.206;2023-08-01T08:36:01;21.40;99.90
23395;DHT22;11870;53.084;18.206;2023-08-01T08:38:28;21.40;99.90
23395;DHT22;11870;53.084;18.206;2023-08-01T08:41:10;21.20;99.90
23395;DHT22;11870;53.084;18.206;2023-08-01T08:43:37;21.10;99.90
23395;DHT22;11870;53.084;18.206;2023-08-01T08:46:04;21.10;99.90
23395;DHT22;11870;53.084;18.206;2023-08-01T08:48:32;21.20;99.90
23395;DHT22;11870;53.084;18.206;2023-08-01T08:50:59;21.30;99.90
23395;DHT22;11870;53.084;18.206;2023-08-01T08:53:26;21.30;99.90
23395;DHT22;11870;53.084;18.206;2023-08-01T08:55:52;21.20;99.90
23395;DHT22;11870;53.084;18.206;2023-08-01T08:58:18;21.30;99.90
23395;DHT22;11870;53.084;18.206;2023-08-01T09:00:45;21.90;99.90
23395;DHT22;11870;53.084;18.206;2023-08-01T09:03:12;22.70;99.90
23395;DHT22;11870;53.084;18.206;2023-08-01T09:05:50;23.40;99.90
23395;DHT22;11870;53.084;18.206;2023-08-01T09:08:21;23.60;99.90
23395;DHT22;11870;53.084;18.206;2023-08-01T09:10:50;23.60;99.90
23395;DHT22;11870;53.084;18.206;2023-08-01T09:13:16;23.30;99.90
23395;DHT22;11870;53.084;18.206;2023-08-01T09:15:42;22.90;99.90
23395;DHT22;11870;53.084;18.206;2023-08-01T09:18:11;23.00;99.90
23395;DHT22;11870;53.084;18.206;2023-08-01T09:20:45;22.80;99.90
23395;DHT22;11870;53.084;18.206;2023-08-01T09:23:13;22.80;99.90
23395;DHT22;11870;53.084;18.206;2023-08-01T09:25:39;22.90;99.90
23395;DHT22;11870;53.084;18.206;2023-08-01T09:28:26;23.10;99.90
23395;DHT22;11870;53.084;18.206;2023-08-01T09:30:54;23.50;99.90
23395;DHT22;11870;53.084;18.206;2023-08-01T09:33:22;24.00;99.90
23395;DHT22;11870;53.084;18.206;2023-08-01T09:35:51;24.50;99.90
23395;DHT22;11870;53.084;18.206;2023-08-01T09:38:18;25.20;99.90
23395;DHT22;11870;53.084;18.206;2023-08-01T09:40:45;25.90;99.90
23395;DHT22;11870;53.084;18.206;2023-08-01T09:43:12;25.80;99.90
23395;DHT22;11870;53.084;18.206;2023-08-01T09:45:52;25.50;99.90
23395;DHT22;11870;53.084;18.206;2023-08-01T09:48:23;25.40;99.90
23395;DHT22;11870;53.084;18.206;2023-08-01T09:50:50;24.80;99.90
23395;DHT22;11870;53.084;18.206;2023-08-01T09:53:16;24.30;99.90
23395;DHT22;11870;53.084;18.206;2023-08-01T09:55:45;24.10;99.90
23395;DHT22;11870;53.084;18.206;2023-08-01T09:58:17;23.90;99.90
23395;DHT22;11870;53.084;18.206;2023-08-01T10:00:46;23.40;99.90
23395;DHT22;11870;53.084;18.206;2023-08-01T10:03:13;23.00;99.90
23395;DHT22;11870;53.084;18.206;2023-08-01T10:05:40;22.70;99.90
23395;DHT22;11870;53.084;18.206;2023-08-01T10:08:08;22.40;99.90
23395;DHT22;11870;53.084;18.206;2023-08-01T10:10:35;22.00;99.90
23395;DHT22;11870;53.084;18.206;2023-08-01T10:13:02;21.90;99.90
23395;DHT22;11870;53.084;18.206;2023-08-01T10:15:29;21.80;99.90
23395;DHT22;11870;53.084;18.206;2023-08-01T10:17:57;21.50;99.90
23395;DHT22;11870;53.084;18.206;2023-08-01T10:20:23;21.40;99.90
23395;DHT22;11870;53.084;18.206;2023-08-01T10:22:51;21.40;99.90
23395;DHT22;11870;53.084;18.206;2023-08-01T10:25:20;21.30;99.90
23395;DHT22;11870;53.084;18.206;2023-08-01T10:28:03;21.10;99.90
23395;DHT22;11870;53.084;18.206;2023-08-01T10:30:29;21.00;99.90
23395;DHT22;11870;53.084;18.206;2023-08-01T10:32:57;21.00;99.90
23395;DHT22;11870;53.084;18.206;2023-08-01T10:35:36;21.40;99.90
23395;DHT22;11870;53.084;18.206;2023-08-01T10:38:11;22.10;99.90
23395;DHT22;11870;53.084;18.206;2023-08-01T10:43:18;23.80;99.90
23395;DHT22;11870;53.084;18.206;2023-08-01T10:45:44;24.40;99.90
23395;DHT22;11870;53.084;18.206;2023-08-01T10:48:11;24.80;99.90
23395;DHT22;11870;53.084;18.206;2023-08-01T10:50:37;25.00;99.90
23395;DHT22;11870;53.084;18.206;2023-08-01T10:53:08;25.00;99.90
23395;DHT22;11870;53.084;18.206;2023-08-01T10:55:41;24.80;99.90
23395;DHT22;11870;53.084;18.206;2023-08-01T10:58:08;24.50;99.90
23395;DHT22;11870;53.084;18.206;2023-08-01T11:00:33;24.20;99.90
23395;DHT22;11870;53.084;18.206;2023-08-01T11:03:00;23.70;99.90
23395;DHT22;11870;53.084;18.206;2023-08-01T11:05:25;23.40;99.90
23395;DHT22;11870;53.084;18.206;2023-08-01T11:08:01;23.40;99.90
23395;DHT22;11870;53.084;18.206;2023-08-01T11:10:29;23.50;99.90
23395;DHT22;11870;53.084;18.206;2023-08-01T11:12:58;23.70;99.90
23395;DHT22;11870;53.084;18.206;2023-08-01T11:15:24;24.00;99.90
23395;DHT22;11870;53.084;18.206;2023-08-01T11:17:54;23.90;99.90
23395;DHT22;11870;53.084;18.206;2023-08-01T11:20:22;24.00;99.90
23395;DHT22;11870;53.084;18.206;2023-08-01T11:23:01;23.60;99.90
23395;DHT22;11870;53.084;18.206;2023-08-01T11:25:41;23.40;99.90
23395;DHT22;11870;53.084;18.206;2023-08-01T11:28:14;23.10;99.90
23395;DHT22;11870;53.084;18.206;2023-08-01T11:30:40;22.70;99.90
23395;DHT22;11870;53.084;18.206;2023-08-01T11:33:24;22.10;99.90
23395;DHT22;11870;53.084;18.206;2023-08-01T11:35:54;21.30;99.90
23395;DHT22;11870;53.084;18.206;2023-08-01T11:38:25;20.50;99.90
23395;DHT22;11870;53.084;18.206;2023-08-01T11:40:51;20.10;99.90
23395;DHT22;11870;53.084;18.206;2023-08-01T11:43:18;19.70;99.90
23395;DHT22;11870;53.084;18.206;2023-08-01T11:45:55;19.40;99.90
23395;DHT22;11870;53.084;18.206;2023-08-01T11:48:22;19.30;99.90
23395;DHT22;11870;53.084;18.206;2023-08-01T11:50:56;19.20;99.90
23395;DHT22;11870;53.084;18.206;2023-08-01T11:53:23;19.20;99.90
23395;DHT22;11870;53.084;18.206;2023-08-01T11:55:50;19.20;99.90
23395;DHT22;11870;53.084;18.206;2023-08-01T11:58:29;19.50;99.90
23395;DHT22;11870;53.084;18.206;2023-08-01T12:01:12;19.60;99.90
23395;DHT22;11870;53.084;18.206;2023-08-01T12:03:49;19.60;99.90
23395;DHT22;11870;53.084;18.206;2023-08-01T12:06:16;19.60;99.90
23395;DHT22;11870;53.084;18.206;2023-08-01T12:08:44;19.70;99.90
23395;DHT22;11870;53.084;18.206;2023-08-01T12:11:28;19.80;99.90
23395;DHT22;11870;53.084;18.206;2023-08-01T12:14:15;20.00;99.90
23395;DHT22;11870;53.084;18.206;2023-08-01T12:16:42;20.30;99.90
23395;DHT22;11870;53.084;18.206;2023-08-01T12:19:19;20.60;99.90
23395;DHT22;11870;53.084;18.206;2023-08-01T12:21:45;21.00;99.90
23395;DHT22;11870;53.084;18.206;2023-08-01T12:24:12;21.30;99.90
23395;DHT22;11870;53.084;18.206;2023-08-01T12:26:38;21.60;99.90
23395;DHT22;11870;53.084;18.206;2023-08-01T12:29:04;21.80;99.90
23395;DHT22;11870;53.084;18.206;2023-08-01T12:31:30;22.00;99.90
23395;DHT22;11870;53.084;18.206;2023-08-01T12:33:57;22.10;99.90
23395;DHT22;11870;53.084;18.206;2023-08-01T12:36:23;22.20;99.90
23395;DHT22;11870;53.084;18.206;2023-08-01T12:38:49;22.20;99.90
23395;DHT22;11870;53.084;18.206;2023-08-01T12:41:15;21.90;99.90
23395;DHT22;11870;53.084;18.206;2023-08-01T12:43:42;22.10;99.90
23395;DHT22;11870;53.084;18.206;2023-08-01T12:46:08;22.10;99.90
23395;DHT22;11870;53.084;18.206;2023-08-01T12:48:34;23.20;99.90
23395;DHT22;11870;53.084;18.206;2023-08-01T12:51:00;22.20;99.90
23395;DHT22;11870;53.084;18.206;2023-08-01T12:53:28;22.20;99.90
23395;DHT22;11870;53.084;18.206;2023-08-01T12:55:54;22.30;99.90
23395;DHT22;11870;53.084;18.206;2023-08-01T12:58:20;22.30;99.90
23395;DHT22;11870;53.084;18.206;2023-08-01T13:00:46;22.50;99.90
23395;DHT22;11870;53.084;18.206;2023-08-01T13:03:12;22.50;99.90
23395;DHT22;11870;53.084;18.206;2023-08-01T13:05:40;22.60;99.90
23395;DHT22;11870;53.084;18.206;2023-08-01T13:08:07;22.50;99.90
23395;DHT22;11870;53.084;18.206;2023-08-01T13:10:38;22.20;99.90
23395;DHT22;11870;53.084;18.206;2023-08-01T13:13:04;22.10;99.90
23395;DHT22;11870;53.084;18.206;2023-08-01T13:15:30;22.10;99.90
23395;DHT22;11870;53.084;18.206;2023-08-01T13:17:56;22.40;99.90
23395;DHT22;11870;53.084;18.206;2023-08-01T13:20:22;22.70;99.90
23395;DHT22;11870;53.084;18.206;2023-08-01T13:22:50;22.90;99.90
23395;DHT22;11870;53.084;18.206;2023-08-01T13:25:17;23.30;99.90
23395;DHT22;11870;53.084;18.206;2023-08-01T13:27:44;23.50;99.90
23395;DHT22;11870;53.084;18.206;2023-08-01T13:30:10;23.70;99.90
23395;DHT22;11870;53.084;18.206;2023-08-01T13:32:40;24.00;99.90
23395;DHT22;11870;53.084;18.206;2023-08-01T13:35:06;24.00;99.90
23395;DHT22;11870;53.084;18.206;2023-08-01T13:37:32;24.00;99.90
23395;DHT22;11870;53.084;18.206;2023-08-01T13:39:58;24.00;99.90
23395;DHT22;11870;53.084;18.206;2023-08-01T13:42:24;24.20;99.90
23395;DHT22;11870;53.084;18.206;2023-08-01T13:44:50;24.10;99.90
23395;DHT22;11870;53.084;18.206;2023-08-01T13:47:16;24.10;99.90
23395;DHT22;11870;53.084;18.206;2023-08-01T13:49:42;24.10;99.90
23395;DHT22;11870;53.084;18.206;2023-08-01T13:52:08;24.00;99.90
23395;DHT22;11870;53.084;18.206;2023-08-01T13:54:35;24.00;99.90
23395;DHT22;11870;53.084;18.206;2023-08-01T13:57:02;23.80;99.90
23395;DHT22;11870;53.084;18.206;2023-08-01T13:59:28;23.60;99.90
23395;DHT22;11870;53.084;18.206;2023-08-01T14:01:56;23.60;99.90
23395;DHT22;11870;53.084;18.206;2023-08-01T14:04:22;23.30;99.90
23395;DHT22;11870;53.084;18.206;2023-08-01T14:06:48;22.90;99.90
23395;DHT22;11870;53.084;18.206;2023-08-01T14:09:14;22.90;99.90
23395;DHT22;11870;53.084;18.206;2023-08-01T14:11:40;22.80;99.90
23395;DHT22;11870;53.084;18.206;2023-08-01T14:14:06;22.70;99.90
23395;DHT22;11870;53.084;18.206;2023-08-01T14:16:33;22.60;99.90
23395;DHT22;11870;53.084;18.206;2023-08-01T14:18:59;22.40;99.90
23395;DHT22;11870;53.084;18.206;2023-08-01T14:21:26;22.10;99.90
23395;DHT22;11870;53.084;18.206;2023-08-01T14:23:52;22.00;99.90
23395;DHT22;11870;53.084;18.206;2023-08-01T14:26:19;21.80;99.90
23395;DHT22;11870;53.084;18.206;2023-08-01T14:28:45;21.50;99.90
23395;DHT22;11870;53.084;18.206;2023-08-01T14:31:12;21.00;99.90
23395;DHT22;11870;53.084;18.206;2023-08-01T14:33:37;20.60;99.90
23395;DHT22;11870;53.084;18.206;2023-08-01T14:36:08;20.40;99.90
23395;DHT22;11870;53.084;18.206;2023-08-01T14:38:34;20.30;99.90
23395;DHT22;11870;53.084;18.206;2023-08-01T14:41:04;20.30;99.90
23395;DHT22;11870;53.084;18.206;2023-08-01T14:45:56;20.10;99.90
23395;DHT22;11870;53.084;18.206;2023-08-01T14:48:22;20.10;99.90
23395;DHT22;11870;53.084;18.206;2023-08-01T14:50:49;20.10;99.90
23395;DHT22;11870;53.084;18.206;2023-08-01T14:53:14;20.10;99.90
23395;DHT22;11870;53.084;18.206;2023-08-01T14:55:41;20.00;99.90
23395;DHT22;11870;53.084;18.206;2023-08-01T14:58:06;19.90;99.90
23395;DHT22;11870;53.084;18.206;2023-08-01T15:00:36;20.20;99.90
23395;DHT22;11870;53.084;18.206;2023-08-01T15:03:02;20.50;99.90
23395;DHT22;11870;53.084;18.206;2023-08-01T15:05:28;20.80;99.90
23395;DHT22;11870;53.084;18.206;2023-08-01T15:07:54;21.20;99.90
23395;DHT22;11870;53.084;18.206;2023-08-01T15:10:20;21.60;99.90
23395;DHT22;11870;53.084;18.206;2023-08-01T15:12:46;22.00;99.90
23395;DHT22;11870;53.084;18.206;2023-08-01T15:15:12;22.10;99.90
23395;DHT22;11870;53.084;18.206;2023-08-01T15:17:38;22.20;99.90
23395;DHT22;11870;53.084;18.206;2023-08-01T15:20:05;22.10;99.90
23395;DHT22;11870;53.084;18.206;2023-08-01T15:22:31;22.20;99.90